Time;durP1;ratioP1;P1;durP2;ratioP2;P2;SDS_P1;SDS_P2;PMS_P1;PMS_P2;Temp;Humidity;BMP_temperature;BMP_pressure;BME280_temperature;BME280_humidity;BME280_pressure;Samples;Min_cycle;Max_cycle;Signal;HPM_P1;HPM_P2
2024/03/11 00:00:26;;;;;;;3.80;1.00;;;;;;;-1.93;100.00;100978.41;106141;1257;72709;-58
2024/03/11 00:02:54;;;;;;;2.40;0.80;;;;;;;-1.95;100.00;100978.16;106370;1260;60595;-55
2024/03/11 00:05:21;;;;;;;2.50;0.60;;;;;;;-1.97;100.00;100981.14;106121;1256;60547;-56
2024/03/11 00:07:49;;;;;;;1.50;0.50;;;;;;;-1.99;100.00;100983.55;108902;1256;73837;-57
2024/03/11 00:10:18;;;;;;;1.20;0.50;;;;;;;-2.01;100.00;100985.61;106372;1257;66536;-56
2024/03/11 00:12:51;;;;;;;1.10;0.40;;;;;;;-2.03;100.00;100987.33;106405;1267;72715;-55
2024/03/11 00:15:23;;;;;;;1.10;0.50;;;;;;;-2.03;100.00;100986.78;106610;1260;61019;-56
2024/03/11 00:17:52;;;;;;;2.00;0.50;;;;;;;-2.05;100.00;100991.33;106667;1259;60441;-59
2024/03/11 00:20:20;;;;;;;1.00;0.40;;;;;;;-2.08;100.00;100995.14;106422;1260;74327;-55
2024/03/11 00:22:48;;;;;;;2.40;0.50;;;;;;;-2.10;100.00;100997.36;106105;1269;69549;-57
2024/03/11 00:25:16;;;;;;;1.40;0.40;;;;;;;-2.12;100.00;100999.61;106163;1261;71419;-54
2024/03/11 00:27:43;;;;;;;0.60;0.30;;;;;;;-2.14;100.00;100999.76;106208;1254;60554;-57
2024/03/11 00:30:11;;;;;;;1.10;0.40;;;;;;;-2.16;100.00;101006.58;106122;1270;62193;-60
2024/03/11 00:32:44;;;;;;;1.00;0.40;;;;;;;-2.17;100.00;101012.33;106051;1260;74322;-56
2024/03/11 00:35:14;;;;;;;2.10;0.50;;;;;;;-2.20;100.00;101019.10;106159;1260;67645;-58
2024/03/11 00:37:42;;;;;;;1.60;0.50;;;;;;;-2.23;100.00;101022.93;106425;1262;71347;-56
2024/03/11 00:40:10;;;;;;;1.10;0.60;;;;;;;-2.24;100.00;101025.89;106106;1258;60081;-56
2024/03/11 00:42:40;;;;;;;2.30;0.70;;;;;;;-2.25;100.00;101026.73;108374;1255;60576;-57
2024/03/11 00:45:12;;;;;;;3.30;0.80;;;;;;;-2.28;100.00;101026.66;105996;1258;74538;-58
2024/03/11 00:47:39;;;;;;;1.60;0.60;;;;;;;-2.30;100.00;101030.67;106018;1259;67123;-56
2024/03/11 00:50:09;;;;;;;2.30;0.60;;;;;;;-2.30;100.00;101034.90;106181;1258;72916;-56
2024/03/11 00:52:38;;;;;;;5.40;0.70;;;;;;;-2.32;100.00;101033.45;106021;1258;60554;-56
2024/03/11 00:55:08;;;;;;;1.10;0.60;;;;;;;-2.34;100.00;101032.88;106140;1255;60523;-56
2024/03/11 00:57:36;;;;;;;1.70;0.70;;;;;;;-2.36;100.00;101028.25;108906;1255;73746;-56
2024/03/11 01:00:04;;;;;;;2.90;1.20;;;;;;;-2.37;100.00;101034.19;108949;1255;66710;-57
2024/03/11 01:02:34;;;;;;;1.40;0.70;;;;;;;-2.39;100.00;101032.59;108803;1256;72676;-58
2024/03/11 01:05:02;;;;;;;2.10;0.70;;;;;;;-2.41;100.00;101032.88;108926;1257;61051;-57
2024/03/11 01:07:32;;;;;;;1.40;0.70;;;;;;;-2.44;100.00;101031.40;108783;1255;60701;-56
2024/03/11 01:10:15;;;;;;;1.70;0.90;;;;;;;-2.45;100.00;101029.23;108725;1254;74280;-58
2024/03/11 01:12:43;;;;;;;2.00;0.70;;;;;;;-2.48;100.00;101028.33;108990;1255;68109;-58
2024/03/11 01:15:10;;;;;;;1.80;0.60;;;;;;;-2.50;100.00;101031.77;108917;1256;71430;-56
2024/03/11 01:17:38;;;;;;;1.10;0.50;;;;;;;-2.53;100.00;101033.81;108884;1255;58796;-59
2024/03/11 01:20:10;;;;;;;5.50;0.60;;;;;;;-2.54;100.00;101029.89;108751;1255;60530;-55
2024/03/11 01:22:42;;;;;;;3.00;0.60;;;;;;;-2.56;100.00;101031.45;107097;1254;72644;-55
2024/03/11 01:25:10;;;;;;;1.30;0.60;;;;;;;-2.58;100.00;101035.96;107971;1257;66815;-59
2024/03/11 01:27:39;;;;;;;1.70;0.90;;;;;;;-2.59;100.00;101042.08;106309;1260;71532;-58
2024/03/11 01:30:07;;;;;;;1.60;0.50;;;;;;;-2.61;100.00;101048.54;107472;1257;60111;-57
2024/03/11 01:32:39;;;;;;;1.90;0.50;;;;;;;-2.63;100.00;101044.27;106362;1260;60330;-59
2024/03/11 01:35:11;;;;;;;3.90;0.50;;;;;;;-2.65;100.00;101043.87;108771;1255;73898;-56
2024/03/11 01:37:41;;;;;;;2.40;0.50;;;;;;;-2.68;100.00;101050.30;107237;1257;65849;-57
2024/03/11 01:40:10;;;;;;;1.10;0.50;;;;;;;-2.71;100.00;101056.20;106002;1260;72730;-56
2024/03/11 01:42:42;;;;;;;0.90;0.40;;;;;;;-2.72;100.00;101058.79;107120;1255;60499;-56
2024/03/11 01:45:12;;;;;;;2.30;0.60;;;;;;;-2.72;100.00;101061.77;106100;1255;61034;-56
2024/03/11 01:47:39;;;;;;;0.80;0.40;;;;;;;-2.74;100.00;101065.08;105997;1256;73862;-58
2024/03/11 01:50:08;;;;;;;1.10;0.50;;;;;;;-2.76;100.00;101069.09;106300;1260;65814;-53
2024/03/11 01:52:59;;;;;;;1.40;0.40;;;;;;;-2.76;100.00;101067.48;107556;1255;70994;-56
2024/03/11 01:55:27;;;;;;;3.40;0.50;;;;;;;-2.76;100.00;101072.05;106171;1255;60841;-55
2024/03/11 01:57:56;;;;;;;0.80;0.40;;;;;;;-2.77;100.00;101073.94;106459;1257;61306;-55
2024/03/11 02:00:24;;;;;;;3.20;0.50;;;;;;;-2.78;100.00;101076.73;106020;1256;73976;-56
2024/03/11 02:02:53;;;;;;;3.60;0.50;;;;;;;-2.78;100.00;101078.66;106044;1256;67037;-55
2024/03/11 02:05:22;;;;;;;0.90;0.50;;;;;;;-2.79;100.00;101075.65;106850;1257;75515;-55
2024/03/11 02:07:57;;;;;;;5.00;0.50;;;;;;;-2.81;100.00;101077.91;108450;1255;60052;-57
2024/03/11 02:10:26;;;;;;;1.30;0.60;;;;;;;-2.82;100.00;101079.63;107150;1261;60383;-55
2024/03/11 02:12:55;;;;;;;1.20;0.50;;;;;;;-2.84;100.00;101084.67;106211;1255;74605;-57
2024/03/11 02:15:23;;;;;;;3.30;0.60;;;;;;;-2.85;100.00;101084.45;106556;1259;65849;-57
2024/03/11 02:17:51;;;;;;;1.50;0.50;;;;;;;-2.88;100.00;101080.52;106026;1262;73199;-55
2024/03/11 02:20:18;;;;;;;1.40;0.60;;;;;;;-2.89;100.00;101077.50;105904;1260;60497;-54
2024/03/11 02:22:53;;;;;;;1.00;0.50;;;;;;;-2.91;100.00;101079.02;105982;1260;60557;-55
2024/03/11 02:25:21;;;;;;;2.00;0.50;;;;;;;-2.94;100.00;101080.69;106026;1260;72707;-55
2024/03/11 02:27:49;;;;;;;1.50;0.60;;;;;;;-2.96;100.00;101080.45;106090;1260;65848;-55
2024/03/11 02:30:17;;;;;;;1.30;0.60;;;;;;;-2.99;100.00;101079.53;106151;1261;71167;-54
2024/03/11 02:32:45;;;;;;;1.20;0.50;;;;;;;-3.01;100.00;101080.34;106691;1259;60439;-58
2024/03/11 02:35:12;;;;;;;1.30;0.60;;;;;;;-3.03;100.00;101083.26;106156;1259;60955;-55
2024/03/11 02:37:43;;;;;;;1.10;0.60;;;;;;;-3.06;100.00;101087.41;106229;1260;73783;-54
2024/03/11 02:40:13;;;;;;;2.70;0.60;;;;;;;-3.08;100.00;101089.13;108683;1255;66891;-55
2024/03/11 02:42:40;;;;;;;1.70;0.60;;;;;;;-3.10;100.00;101088.52;106209;1260;71135;-56
2024/03/11 02:45:14;;;;;;;1.90;0.80;;;;;;;-3.11;100.00;101087.08;106170;1254;60536;-55
2024/03/11 02:47:41;;;;;;;2.10;0.70;;;;;;;-3.13;100.00;101087.52;106670;1260;60963;-56
2024/03/11 02:50:10;;;;;;;2.60;0.70;;;;;;;-3.15;100.00;101090.14;106160;1260;72651;-55
2024/03/11 02:52:38;;;;;;;3.40;0.60;;;;;;;-3.16;100.00;101090.82;106132;1260;67656;-60
2024/03/11 02:55:06;;;;;;;2.50;0.60;;;;;;;-3.19;100.00;101096.35;106168;1261;71430;-58
2024/03/11 02:57:33;;;;;;;3.00;0.70;;;;;;;-3.22;100.00;101098.53;107353;1255;60598;-58
2024/03/11 03:00:02;;;;;;;2.90;0.60;;;;;;;-3.25;100.00;101101.80;106125;1256;60615;-59
2024/03/11 03:02:29;;;;;;;1.40;0.80;;;;;;;-3.27;100.00;101099.98;106179;1256;73961;-59
2024/03/11 03:04:57;;;;;;;3.50;0.70;;;;;;;-3.28;100.00;101100.27;106124;1268;65768;-59
2024/03/11 03:07:25;;;;;;;2.70;0.60;;;;;;;-3.31;100.00;101101.08;106117;1260;72731;-59
2024/03/11 03:09:53;;;;;;;3.60;0.60;;;;;;;-3.33;100.00;101098.04;106494;1257;60370;-59
2024/03/11 03:12:21;;;;;;;1.90;0.60;;;;;;;-3.35;100.00;101099.38;106891;1260;60791;-59
2024/03/11 03:14:48;;;;;;;1.50;0.50;;;;;;;-3.36;100.00;101098.30;106159;1261;72660;-59
2024/03/11 03:17:15;;;;;;;5.10;0.50;;;;;;;-3.38;100.00;101093.16;106175;1259;65118;-57
2024/03/11 03:19:43;;;;;;;1.70;0.50;;;;;;;-3.38;100.00;101094.19;106724;1255;72501;-59
2024/03/11 03:22:11;;;;;;;2.00;0.50;;;;;;;-3.38;100.00;101095.95;106117;1258;61753;-57
2024/03/11 03:24:38;;;;;;;0.70;0.40;;;;;;;-3.36;100.00;101100.21;106215;1260;60410;-59
2024/03/11 03:27:08;;;;;;;4.30;1.10;;;;;;;-3.34;100.00;101096.60;106075;1256;75345;-57
2024/03/11 03:29:39;;;;;;;0.70;0.30;;;;;;;-3.32;100.00;101102.48;106052;1260;69253;-58
2024/03/11 03:32:08;;;;;;;0.90;0.40;;;;;;;-3.26;100.00;101099.98;106245;1259;71452;-57
2024/03/11 03:34:35;;;;;;;1.80;0.40;;;;;;;-3.21;100.00;101099.80;108747;1255;59291;-60
2024/03/11 03:37:03;;;;;;;0.80;0.40;;;;;;;-3.16;100.00;101098.53;106210;1257;60714;-59
2024/03/11 03:39:30;;;;;;;0.80;0.50;;;;;;;-3.14;100.00;101098.59;106183;1260;73839;-59
2024/03/11 03:41:58;;;;;;;0.90;0.40;;;;;;;-3.12;100.00;101100.05;108881;1255;67468;-59
2024/03/11 03:44:25;;;;;;;2.10;0.40;;;;;;;-3.12;100.00;101099.68;108854;1255;73258;-61
2024/03/11 03:46:55;;;;;;;0.80;0.50;;;;;;;-3.14;100.00;101101.40;108800;1255;60234;-60
2024/03/11 03:49:22;;;;;;;1.30;0.40;;;;;;;-3.18;100.00;101104.80;108861;1255;60086;-60
2024/03/11 03:51:49;;;;;;;1.10;0.50;;;;;;;-3.21;100.00;101104.88;108913;1255;74421;-61
2024/03/11 03:54:18;;;;;;;1.00;0.60;;;;;;;-3.26;100.00;101104.58;108795;1255;66100;-59
2024/03/11 03:56:45;;;;;;;2.50;0.50;;;;;;;-3.30;100.00;101105.48;106541;1256;71772;-60
2024/03/11 03:59:12;;;;;;;2.10;0.50;;;;;;;-3.35;100.00;101106.39;106109;1260;60560;-61
2024/03/11 04:01:40;;;;;;;2.80;0.90;;;;;;;-3.40;100.00;101105.21;108764;1255;59937;-59
2024/03/11 04:04:08;;;;;;;1.30;0.50;;;;;;;-3.44;100.00;101106.31;109035;1255;73691;-59
2024/03/11 04:06:35;;;;;;;3.20;0.40;;;;;;;-3.47;100.00;101104.46;108686;1256;66037;-59
2024/03/11 04:09:02;;;;;;;1.90;0.40;;;;;;;-3.50;100.00;101107.02;108863;1255;71224;-60
2024/03/11 04:11:29;;;;;;;0.80;0.40;;;;;;;-3.54;100.00;101108.48;109045;1257;59380;-59
2024/03/11 04:13:57;;;;;;;0.60;0.40;;;;;;;-3.56;100.00;101103.66;108923;1254;58734;-59
2024/03/11 04:16:26;;;;;;;3.00;0.50;;;;;;;-3.58;100.00;101110.46;108955;1255;73108;-59
2024/03/11 04:18:55;;;;;;;3.90;0.40;;;;;;;-3.60;100.00;101110.23;106429;1260;67018;-59
2024/03/11 04:21:22;;;;;;;1.10;0.40;;;;;;;-3.62;100.00;101112.98;106074;1260;73118;-57
2024/03/11 04:23:50;;;;;;;3.30;0.40;;;;;;;-3.64;100.00;101113.96;106152;1261;60519;-59
2024/03/11 04:26:18;;;;;;;2.20;0.40;;;;;;;-3.65;100.00;101119.37;108820;1255;58422;-59
2024/03/11 04:28:45;;;;;;;3.90;0.40;;;;;;;-3.65;100.00;101119.55;108662;1255;73846;-59
2024/03/11 04:31:12;;;;;;;0.90;0.30;;;;;;;-3.64;100.00;101124.83;108905;1254;65694;-60
2024/03/11 04:33:40;;;;;;;1.70;0.40;;;;;;;-3.62;100.00;101126.84;108849;1254;73142;-60
2024/03/11 04:36:08;;;;;;;1.60;0.30;;;;;;;-3.59;100.00;101131.50;108677;1255;61434;-60
2024/03/11 04:38:36;;;;;;;1.00;0.30;;;;;;;-3.54;100.00;101132.68;108808;1255;58824;-60
2024/03/11 04:41:04;;;;;;;1.10;0.40;;;;;;;-3.49;100.00;101134.23;108874;1255;73953;-60
2024/03/11 04:43:31;;;;;;;0.70;0.40;;;;;;;-3.42;100.00;101135.14;108967;1255;65859;-60
2024/03/11 04:45:59;;;;;;;0.70;0.30;;;;;;;-3.35;100.00;101136.09;106307;1260;72058;-59
2024/03/11 04:48:27;;;;;;;0.50;0.40;;;;;;;-3.29;100.00;101136.42;106017;1258;60453;-59
2024/03/11 04:50:54;;;;;;;0.70;0.30;;;;;;;-3.27;100.00;101137.53;106667;1260;60416;-59
2024/03/11 04:53:22;;;;;;;1.70;0.40;;;;;;;-3.25;100.00;101136.19;106754;1256;72583;-59
2024/03/11 04:55:49;;;;;;;0.50;0.30;;;;;;;-3.24;100.00;101139.21;106123;1256;67339;-59
2024/03/11 04:58:16;;;;;;;3.60;0.30;;;;;;;-3.23;100.00;101144.33;106050;1255;72814;-60
2024/03/11 05:00:44;;;;;;;0.80;0.40;;;;;;;-3.21;100.00;101148.77;106097;1255;60486;-59
2024/03/11 05:03:13;;;;;;;1.00;0.40;;;;;;;-3.17;100.00;101151.19;106128;1255;60351;-57
2024/03/11 05:05:40;;;;;;;0.90;0.30;;;;;;;-3.14;100.00;101154.58;107366;1256;74049;-58
2024/03/11 05:08:09;;;;;;;0.70;0.30;;;;;;;-3.09;100.00;101159.84;107122;1260;69565;-58
2024/03/11 05:10:38;;;;;;;1.60;0.40;;;;;;;-3.04;100.00;101159.27;106021;1260;72700;-57
2024/03/11 05:13:05;;;;;;;2.20;0.40;;;;;;;-2.97;100.00;101164.58;108854;1255;59122;-56
2024/03/11 05:15:33;;;;;;;1.60;0.40;;;;;;;-2.92;100.00;101164.54;108982;1255;60553;-54
2024/03/11 05:18:01;;;;;;;1.10;0.40;;;;;;;-2.88;100.00;101165.54;108940;1255;72852;-54
2024/03/11 05:20:29;;;;;;;1.70;0.50;;;;;;;-2.84;100.00;101170.92;108895;1255;65662;-55
2024/03/11 05:22:57;;;;;;;0.70;0.40;;;;;;;-2.79;100.00;101173.87;108942;1255;71708;-59
2024/03/11 05:25:24;;;;;;;0.80;0.40;;;;;;;-2.73;100.00;101175.11;106058;1261;60555;-57
2024/03/11 05:27:51;;;;;;;3.30;0.50;;;;;;;-2.63;100.00;101177.30;106266;1258;60410;-55
2024/03/11 05:30:19;;;;;;;1.20;0.50;;;;;;;-2.54;100.00;101177.71;106192;1258;72864;-55
2024/03/11 05:32:46;;;;;;;2.40;0.60;;;;;;;-2.44;100.00;101177.45;106131;1256;65628;-55
2024/03/11 05:35:16;;;;;;;1.20;0.60;;;;;;;-2.31;100.00;101178.67;108822;1256;71799;-54
2024/03/11 05:37:48;;;;;;;0.50;0.40;;;;;;;-2.15;100.00;101176.11;106820;1258;60473;-56
2024/03/11 05:40:15;;;;;;;2.00;0.50;;;;;;;-1.98;100.00;101175.33;106182;1260;60651;-52
2024/03/11 05:42:42;;;;;;;2.20;0.50;;;;;;;-1.79;100.00;101180.89;106177;1271;72726;-52
2024/03/11 05:45:10;;;;;;;1.40;0.50;;;;;;;-1.58;100.00;101182.11;106545;1255;65849;-52
2024/03/11 05:47:38;;;;;;;0.90;0.50;;;;;;;-1.35;100.00;101183.67;106003;1258;73911;-52
2024/03/11 05:50:06;;;;;;;1.10;0.60;;;;;;;-1.14;100.00;101180.45;105999;1255;60573;-53
2024/03/11 05:52:34;;;;;;;0.80;0.50;;;;;;;-0.98;100.00;101185.02;106256;1255;63106;-53
2024/03/11 05:55:11;;;;;;;3.10;0.60;;;;;;;-0.86;100.00;101189.84;106164;1256;74196;-54
2024/03/11 05:57:40;;;;;;;1.20;0.50;;;;;;;-0.79;100.00;101195.64;106626;1260;67923;-53
2024/03/11 06:00:15;;;;;;;1.80;0.50;;;;;;;-0.72;100.00;101198.76;106500;1257;73393;-53
2024/03/11 06:02:44;;;;;;;1.60;0.50;;;;;;;-0.68;100.00;101203.61;106673;1255;61341;-53
2024/03/11 06:05:13;;;;;;;0.80;0.50;;;;;;;-0.67;100.00;101204.33;106125;1257;60417;-54
2024/03/11 06:07:42;;;;;;;1.60;0.60;;;;;;;-0.69;100.00;101209.59;107147;1255;73958;-56
2024/03/11 06:10:10;;;;;;;3.50;0.50;;;;;;;-0.73;100.00;101211.09;106921;1260;65676;-55
2024/03/11 06:12:37;;;;;;;0.80;0.50;;;;;;;-0.79;100.00;101217.48;106207;1263;71375;-55
2024/03/11 06:15:05;;;;;;;1.70;0.50;;;;;;;-0.87;100.00;101215.39;105738;1257;375792;-54
2024/03/11 06:18:29;;;;;;;2.70;0.50;;;;;;;-0.91;100.00;101215.28;103006;1291;600239;-54
2024/03/11 06:20:56;;;;;;;0.70;0.40;;;;;;;-0.93;100.00;101215.61;105818;1271;59628;-54
2024/03/11 06:23:24;;;;;;;1.20;0.50;;;;;;;-0.91;100.00;101221.29;105428;1273;59309;-56
2024/03/11 06:25:54;;;;;;;0.60;0.40;;;;;;;-0.92;100.00;101224.09;106125;1266;73285;-55
2024/03/11 06:28:23;;;;;;;0.70;0.50;;;;;;;-0.96;100.00;101223.67;105340;1272;67797;-56
2024/03/11 06:30:50;;;;;;;0.80;0.30;;;;;;;-0.96;100.00;101215.73;105380;1269;73188;-55
2024/03/11 06:33:18;;;;;;;0.80;0.40;;;;;;;-0.94;100.00;101220.52;105214;1264;231501;-55
2024/03/11 06:35:47;;;;;;;1.80;0.40;;;;;;;-0.92;100.00;101218.79;108297;1266;58632;-55
2024/03/11 06:38:14;;;;;;;2.20;0.50;;;;;;;-0.88;100.00;101221.36;108445;1265;72322;-56
2024/03/11 06:40:43;;;;;;;0.50;0.30;;;;;;;-0.83;100.00;101222.33;108253;1264;67104;-57
2024/03/11 06:43:10;;;;;;;1.80;0.40;;;;;;;-0.78;100.00;101227.73;108432;1265;71484;-56
2024/03/11 06:45:38;;;;;;;1.60;0.50;;;;;;;-0.74;100.00;101229.23;108284;1266;58094;-56
2024/03/11 06:48:06;;;;;;;0.60;0.30;;;;;;;-0.69;100.00;101230.05;108512;1260;60704;-56
2024/03/11 06:50:34;;;;;;;0.60;0.30;;;;;;;-0.63;100.00;101231.59;108450;1261;71890;-56
2024/03/11 06:53:02;;;;;;;0.50;0.30;;;;;;;-0.58;100.00;101231.66;108486;1261;68085;-56
2024/03/11 06:55:30;;;;;;;0.50;0.30;;;;;;;-0.55;100.00;101228.21;108540;1262;73348;-56
2024/03/11 06:57:57;;;;;;;0.80;0.30;;;;;;;-0.50;100.00;101226.20;108492;1261;59775;-58
2024/03/11 07:00:25;;;;;;;1.70;0.30;;;;;;;-0.44;100.00;101233.19;108488;1261;59162;-58
2024/03/11 07:02:52;;;;;;;2.00;0.30;;;;;;;-0.39;100.00;101234.70;108575;1261;74210;-56
2024/03/11 07:05:26;;;;;;;0.50;0.40;;;;;;;-0.32;100.00;101232.36;108536;1262;67102;-57
2024/03/11 07:07:55;;;;;;;1.00;0.20;;;;;;;-0.24;100.00;101231.29;105932;1265;70545;-56
2024/03/11 07:10:23;;;;;;;1.60;0.40;;;;;;;-0.16;100.00;101227.90;106280;1267;59766;-56
2024/03/11 07:12:51;;;;;;;1.00;0.40;;;;;;;-0.08;100.00;101231.93;106298;1255;59594;-56
2024/03/11 07:15:18;;;;;;;1.20;0.50;;;;;;;-0.01;100.00;101237.73;106145;1258;73226;-55
2024/03/11 07:17:46;;;;;;;1.00;0.40;;;;;;;0.07;100.00;101237.14;106197;1259;67463;-55
2024/03/11 07:20:15;;;;;;;2.10;0.40;;;;;;;0.14;100.00;101238.33;108976;1254;71948;-55
2024/03/11 07:22:42;;;;;;;1.10;0.30;;;;;;;0.22;100.00;101240.94;108945;1253;59799;-55
2024/03/11 07:25:10;;;;;;;1.60;0.20;;;;;;;0.28;100.00;101248.98;109021;1254;60054;-57
2024/03/11 07:27:38;;;;;;;0.70;0.30;;;;;;;0.32;100.00;101246.42;109020;1253;73102;-56
2024/03/11 07:30:06;;;;;;;1.30;0.30;;;;;;;0.34;100.00;101247.67;109035;1257;66063;-56
2024/03/11 07:32:34;;;;;;;0.90;0.30;;;;;;;0.33;100.00;101250.86;106381;1256;72802;-54
2024/03/11 07:35:01;;;;;;;0.80;0.50;;;;;;;0.32;100.00;101248.36;106163;1259;59633;-56
2024/03/11 07:37:29;;;;;;;0.50;0.30;;;;;;;0.35;100.00;101253.70;106152;1259;60299;-56
2024/03/11 07:39:56;;;;;;;0.70;0.30;;;;;;;0.41;100.00;101258.91;106195;1258;70997;-54
2024/03/11 07:42:25;;;;;;;3.40;0.30;;;;;;;0.47;100.00;101258.30;106197;1258;66055;-57
2024/03/11 07:44:53;;;;;;;1.40;0.30;;;;;;;0.52;100.00;101262.98;106179;1259;72681;-56
2024/03/11 07:47:20;;;;;;;3.10;0.50;;;;;;;0.58;100.00;101266.27;106171;1253;59334;-55
2024/03/11 07:49:48;;;;;;;2.80;0.30;;;;;;;0.62;100.00;101265.09;106052;1257;60298;-57
2024/03/11 07:52:15;;;;;;;3.30;0.50;;;;;;;0.63;100.00;101262.10;106815;1254;73133;-54
2024/03/11 07:54:42;;;;;;;2.30;0.50;;;;;;;0.63;100.00;101252.75;106134;1259;65653;-55
2024/03/11 07:57:10;;;;;;;2.30;0.40;;;;;;;0.67;100.00;101251.92;106059;1259;74578;-56
2024/03/11 07:59:38;;;;;;;2.20;0.40;;;;;;;0.73;100.00;101252.02;106310;1256;60121;-54
2024/03/11 08:02:05;;;;;;;4.60;0.50;;;;;;;0.79;100.00;101253.34;106143;1259;60123;-56
2024/03/11 08:04:35;;;;;;;5.50;1.10;;;;;;;0.82;100.00;101254.63;106060;1262;72054;-56
2024/03/11 08:07:02;;;;;;;5.40;0.60;;;;;;;0.83;100.00;101256.25;106232;1259;65663;-56
2024/03/11 08:09:30;;;;;;;6.00;0.40;;;;;;;0.86;100.00;101260.86;106141;1254;72703;-55
2024/03/11 08:11:57;;;;;;;10.10;0.90;;;;;;;0.88;100.00;101257.17;106284;1258;60629;-57
2024/03/11 08:14:25;;;;;;;2.00;0.60;;;;;;;0.91;100.00;101251.05;106265;1258;60163;-57
2024/03/11 08:16:52;;;;;;;2.60;0.50;;;;;;;0.96;100.00;101251.29;106106;1258;73116;-56
2024/03/11 08:19:20;;;;;;;5.90;0.60;;;;;;;1.00;100.00;101250.48;106254;1259;65661;-56
2024/03/11 08:21:47;;;;;;;1.50;0.80;;;;;;;1.05;100.00;101248.24;106017;1263;74815;-55
2024/03/11 08:24:15;;;;;;;5.40;0.70;;;;;;;1.06;100.00;101242.42;106186;1258;59808;-56
2024/03/11 08:26:42;;;;;;;8.90;0.60;;;;;;;1.09;100.00;101241.77;106066;1254;59780;-56
2024/03/11 08:29:09;;;;;;;3.00;0.60;;;;;;;1.15;100.00;101243.96;106193;1253;71933;-58
2024/03/11 08:31:37;;;;;;;1.70;0.50;;;;;;;1.22;100.00;101248.48;106216;1259;65789;-54
2024/03/11 08:34:04;;;;;;;4.10;0.70;;;;;;;1.27;100.00;101253.67;106101;1258;71193;-54
2024/03/11 08:36:31;;;;;;;1.70;0.60;;;;;;;1.31;100.00;101253.02;106250;1258;59675;-55
2024/03/11 08:38:59;;;;;;;4.00;0.60;;;;;;;1.37;100.00;101256.63;106189;1261;60308;-51
2024/03/11 08:41:26;;;;;;;3.00;0.80;;;;;;;1.42;100.00;101256.35;106238;1259;75303;-53
2024/03/11 08:43:54;;;;;;;0.80;0.50;;;;;;;1.43;100.00;101258.48;106213;1259;67203;-54
2024/03/11 08:46:21;;;;;;;2.10;0.50;;;;;;;1.45;100.00;101260.09;106222;1258;71437;-54
2024/03/11 08:48:49;;;;;;;7.60;0.80;;;;;;;1.50;100.00;101259.99;106186;1259;60182;-55
2024/03/11 08:51:17;;;;;;;1.00;0.60;;;;;;;1.57;100.00;101259.35;106207;1259;60445;-52
2024/03/11 08:53:44;;;;;;;1.00;0.50;;;;;;;1.66;100.00;101260.70;106229;1259;71973;-53
2024/03/11 08:56:11;;;;;;;1.70;0.50;;;;;;;1.74;100.00;101258.14;106126;1256;67419;-56
2024/03/11 08:58:40;;;;;;;1.40;0.50;;;;;;;1.79;100.00;101260.15;106095;1256;71467;-56
2024/03/11 09:01:09;;;;;;;2.10;0.60;;;;;;;1.85;100.00;101256.86;106177;1259;59685;-54
2024/03/11 09:03:37;;;;;;;5.50;0.70;;;;;;;1.91;100.00;101253.38;106194;1259;60637;-54
2024/03/11 09:06:05;;;;;;;1.80;0.60;;;;;;;1.99;100.00;101258.06;106591;1255;73314;-54
2024/03/11 09:08:33;;;;;;;0.90;0.50;;;;;;;2.06;100.00;101259.19;106169;1259;67908;-56
2024/03/11 09:11:04;;;;;;;1.10;0.50;;;;;;;2.10;100.00;101253.59;106255;1257;72743;-54
2024/03/11 09:13:31;;;;;;;2.00;0.40;;;;;;;2.09;100.00;101254.27;106116;1258;60452;-56
2024/03/11 09:15:59;;;;;;;1.00;0.40;;;;;;;2.06;100.00;101246.80;106152;1260;60622;-54
2024/03/11 09:18:26;;;;;;;1.00;0.50;;;;;;;2.06;100.00;101239.89;106159;1258;72182;-55
2024/03/11 09:20:55;;;;;;;2.10;0.40;;;;;;;2.07;100.00;101232.64;108805;1256;66140;-56
2024/03/11 09:23:23;;;;;;;2.50;0.60;;;;;;;2.08;100.00;101237.80;107018;1256;71536;-56
2024/03/11 09:25:50;;;;;;;1.40;0.40;;;;;;;2.15;100.00;101238.55;106007;1261;59736;-57
2024/03/11 09:28:18;;;;;;;0.90;0.50;;;;;;;2.18;100.00;101233.99;106115;1256;61307;-58
2024/03/11 09:30:46;;;;;;;2.50;0.50;;;;;;;2.19;100.00;101230.66;106189;1260;71857;-54
2024/03/11 09:33:14;;;;;;;2.10;0.40;;;;;;;2.21;100.00;101228.36;106140;1261;65638;-54
2024/03/11 09:35:42;;;;;;;1.10;0.60;;;;;;;2.21;100.00;101223.20;108964;1256;73286;-55
2024/03/11 09:38:12;;;;;;;1.00;0.50;;;;;;;2.23;100.00;101221.10;107261;1258;59634;-58
2024/03/11 09:40:41;;;;;;;4.00;0.60;;;;;;;2.24;100.00;101221.11;108778;1256;59136;-58
2024/03/11 09:43:11;;;;;;;3.80;0.50;;;;;;;2.26;100.00;101223.97;109003;1256;73327;-58
2024/03/11 09:45:40;;;;;;;1.70;0.60;;;;;;;2.27;100.00;101217.79;108723;1256;66062;-57
2024/03/11 09:48:08;;;;;;;3.60;0.60;;;;;;;2.31;100.00;101214.44;108718;1256;72324;-58
2024/03/11 09:50:37;;;;;;;2.00;0.60;;;;;;;2.37;100.00;101216.62;106944;1261;61777;-59
2024/03/11 09:53:06;;;;;;;1.40;0.50;;;;;;;2.42;100.00;101218.08;108957;1256;57851;-59
2024/03/11 09:55:35;;;;;;;3.20;1.10;;;;;;;2.48;100.00;101212.98;108923;1255;73102;-58
2024/03/11 09:58:10;;;;;;;4.00;0.60;;;;;;;2.54;100.00;101219.59;108906;1256;65894;-59
2024/03/11 10:00:49;;;;;;;2.30;0.70;;;;;;;2.59;100.00;101215.02;108645;1261;73158;-61
2024/03/11 10:03:20;;;;;;;0.60;0.40;;;;;;;2.61;100.00;101213.80;108869;1255;58447;-58
2024/03/11 10:06:07;;;;;;;2.30;0.60;;;;;;;2.65;100.00;101215.77;108938;1256;60253;-58
2024/03/11 10:08:37;;;;;;;1.40;0.70;;;;;;;2.70;100.00;101214.92;108982;1255;73157;-57
2024/03/11 10:11:28;;;;;;;1.00;0.50;;;;;;;2.74;100.00;101218.48;108777;1256;65898;-58
2024/03/11 10:13:59;;;;;;;2.30;0.60;;;;;;;2.75;100.00;101213.35;108775;1257;73195;-57
2024/03/11 10:16:27;;;;;;;1.20;0.50;;;;;;;2.77;100.00;101200.95;108710;1254;59355;-57
2024/03/11 10:19:11;;;;;;;0.90;0.50;;;;;;;2.78;100.00;101204.52;108948;1254;61405;-57
2024/03/11 10:21:40;;;;;;;2.60;0.50;;;;;;;2.82;100.00;101200.46;108892;1258;72448;-57
2024/03/11 10:24:14;;;;;;;0.50;0.40;;;;;;;2.86;100.00;101193.05;108959;1254;69346;-57
2024/03/11 10:26:42;;;;;;;1.10;0.60;;;;;;;2.90;100.00;101190.75;108888;1256;72724;-58
2024/03/11 10:29:16;;;;;;;0.60;0.50;;;;;;;2.90;100.00;101192.88;108134;1257;60351;-58
2024/03/11 10:31:47;;;;;;;1.30;0.50;;;;;;;2.91;100.00;101187.91;108407;1255;60583;-57
2024/03/11 10:34:21;;;;;;;4.00;0.70;;;;;;;2.94;100.00;101181.56;108896;1254;72816;-57
2024/03/11 10:36:57;;;;;;;2.20;0.80;;;;;;;2.96;100.00;101175.91;108539;1253;65715;-56
2024/03/11 10:39:37;;;;;;;2.40;0.40;;;;;;;2.97;100.00;101184.05;107163;1258;71767;-57
2024/03/11 10:42:12;;;;;;;2.30;0.80;;;;;;;3.00;100.00;101181.23;106280;1258;60483;-56
2024/03/11 10:44:40;;;;;;;4.40;1.70;;;;;;;3.01;100.00;101179.11;107507;1269;60141;-57
2024/03/11 10:47:14;;;;;;;3.20;1.40;;;;;;;3.01;100.00;101173.62;106293;1255;74123;-56
2024/03/11 10:49:48;;;;;;;11.80;1.10;;;;;;;3.02;100.00;101171.33;107637;1259;67287;-57
2024/03/11 10:52:20;;;;;;;38.00;20.80;;;;;;;3.03;100.00;101171.86;106194;1258;71553;-56
2024/03/11 10:54:50;;;;;;;4.50;1.60;;;;;;;3.08;100.00;101170.27;106305;1258;61392;-56
2024/03/11 10:57:39;;;;;;;2.60;0.90;;;;;;;3.11;100.00;101164.80;106136;1259;61268;-56
2024/03/11 11:02:53;;;;;;;1.40;0.60;;;;;;;3.15;100.00;101163.04;106177;1258;67877;-57
2024/03/11 11:05:26;;;;;;;1.90;0.60;;;;;;;3.15;100.00;101166.77;106373;1270;71823;-59
2024/03/11 11:07:53;;;;;;;1.80;0.50;;;;;;;3.12;100.00;101155.23;106658;1256;60476;-58
2024/03/11 11:10:29;;;;;;;4.90;0.60;;;;;;;3.14;100.00;101155.41;106497;1260;60283;-58
2024/03/11 11:12:59;;;;;;;1.20;0.40;;;;;;;3.18;100.00;101156.66;106648;1267;72688;-55
2024/03/11 11:15:28;;;;;;;0.60;0.40;;;;;;;3.23;100.00;101155.27;106491;1258;66212;-57
2024/03/11 11:17:56;;;;;;;0.50;0.30;;;;;;;3.24;100.00;101149.41;107752;1259;71897;-57
2024/03/11 11:20:38;;;;;;;1.20;0.30;;;;;;;3.28;100.00;101158.30;106304;1261;60604;-57
2024/03/11 11:23:10;;;;;;;3.10;0.30;;;;;;;3.31;100.00;101155.48;106298;1261;62114;-56